Marin Sunshine — WDE5919 — position and weather

sailwx.info

Track history (hours):
 
Tides and Currents Weather Stations Pressure Air Temp Water Temp Dewpoint Dewpoint Depression Visibility Wind Speed Wind Dir Waves Ship Positions

Marin Sunshine

Owner: Marine Express, alameda, CA. More information available from US FCC via Universal Licensing System and Coast Guard Vessel Documentation Center.

Last reported at 2015-Aug-02 02:12 UTC. Time now 2015-Aug-03 10:40 UTC.
Position N 37°57' W 121°21'.

MMSI: 367373280.

Date/timePositionNaut miles runAvg speedWind from/ knotsBaromVisibWave heightAir tempDewpointWater temp
2015-Aug-02 02:12N 37°57' W 121°21'0 0.0
2015-Aug-02 01:33N 37°57' W 121°21'1 1.0
2015-Aug-02 00:33N 37°57' W 121°20'2 2.3
2015-Aug-01 23:33N 37°58' W 121°23'1 0.0
2015-Jul-31 20:33N 37°57' W 121°21'0 0.0
2015-Jul-31 19:33N 37°57' W 121°21'0 0.3
2015-Jul-31 18:33N 37°57' W 121°21'0 0.1
2015-Jul-31 17:33N 37°57' W 121°21'0 0.5
2015-Jul-31 16:33N 37°57' W 121°21'0 0.0
2015-Jul-31 15:34N 37°57' W 121°21'  
2015-Jul-29 00:06N 37°57' W 121°21'0 0.0
2015-Jul-28 23:33N 37°57' W 121°21'1 1.0
2015-Jul-28 22:33N 37°57' W 121°20'0 0.1
2015-Jul-28 21:33N 37°57' W 121°20'1 0.9
2015-Jul-28 20:33N 37°57' W 121°21'0 0.0
2015-Jul-27 23:33N 37°57' W 121°21'1 0.9
2015-Jul-27 22:33N 37°57' W 121°20'1 1.2
2015-Jul-27 21:33N 37°58' W 121°22'0 0.0
2015-Jul-26 14:03N 37°57' W 121°21'0 0.9
2015-Jul-26 13:33N 37°58' W 121°22'0 0.4
2015-Jul-26 12:33N 37°57' W 121°21'  
2015-Jul-23 14:18N 37°57' W 121°21'1 1.1
2015-Jul-23 13:33N 37°57' W 121°20'0 0.3
2015-Jul-23 12:33N 37°57' W 121°20'1 1.1
2015-Jul-23 11:33N 37°57' W 121°21'  
Track history (hours):
 
Tides and Currents Weather Stations Pressure Air Temp Water Temp Dewpoint Dewpoint Depression Visibility Wind Speed Wind Dir Waves Ship Positions

Marin Sunshine

Owner: Marine Express, alameda, CA. More information available from US FCC via Universal Licensing System and Coast Guard Vessel Documentation Center.

Last reported at 2015-Aug-02 02:12 UTC. Time now 2015-Aug-03 10:40 UTC.
Position N 37°57' W 121°21'.

MMSI: 367373280.

Date/timePositionNaut miles runAvg speedWind from/ knotsBaromVisibWave heightAir tempDewpointWater temp
2015-Aug-02 02:12N 37°57' W 121°21'0 0.0
2015-Aug-02 01:33N 37°57' W 121°21'1 1.0
2015-Aug-02 00:33N 37°57' W 121°20'2 2.3
2015-Aug-01 23:33N 37°58' W 121°23'1 0.0
2015-Jul-31 20:33N 37°57' W 121°21'0 0.0
2015-Jul-31 19:33N 37°57' W 121°21'0 0.3
2015-Jul-31 18:33N 37°57' W 121°21'0 0.1
2015-Jul-31 17:33N 37°57' W 121°21'0 0.5
2015-Jul-31 16:33N 37°57' W 121°21'0 0.0
2015-Jul-31 15:34N 37°57' W 121°21'  
2015-Jul-29 00:06N 37°57' W 121°21'0 0.0
2015-Jul-28 23:33N 37°57' W 121°21'1 1.0
2015-Jul-28 22:33N 37°57' W 121°20'0 0.1
2015-Jul-28 21:33N 37°57' W 121°20'1 0.9
2015-Jul-28 20:33N 37°57' W 121°21'0 0.0
2015-Jul-27 23:33N 37°57' W 121°21'1 0.9
2015-Jul-27 22:33N 37°57' W 121°20'1 1.2
2015-Jul-27 21:33N 37°58' W 121°22'0 0.0
2015-Jul-26 14:03N 37°57' W 121°21'0 0.9
2015-Jul-26 13:33N 37°58' W 121°22'0 0.4
2015-Jul-26 12:33N 37°57' W 121°21'  
2015-Jul-23 14:18N 37°57' W 121°21'1 1.1
2015-Jul-23 13:33N 37°57' W 121°20'0 0.3
2015-Jul-23 12:33N 37°57' W 121°20'1 1.1
2015-Jul-23 11:33N 37°57' W 121°21'  

Dump ship's entire track history